sensor_id;sensor_type;location;lat;lon;timestamp;temperature;humidity
44121;DHT22;29783;52.504;13.478;2023-08-01T00:00:58;18.80;81.60
44121;DHT22;29783;52.504;13.478;2023-08-01T00:03:25;18.70;81.70
44121;DHT22;29783;52.504;13.478;2023-08-01T00:05:50;18.70;82.10
44121;DHT22;29783;52.504;13.478;2023-08-01T00:08:16;18.60;82.30
44121;DHT22;29783;52.504;13.478;2023-08-01T00:10:42;18.50;83.40
44121;DHT22;29783;52.504;13.478;2023-08-01T00:13:08;18.40;83.50
44121;DHT22;29783;52.504;13.478;2023-08-01T00:15:34;18.30;84.40
44121;DHT22;29783;52.504;13.478;2023-08-01T00:18:00;18.30;84.30
44121;DHT22;29783;52.504;13.478;2023-08-01T00:20:26;18.20;84.80
44121;DHT22;29783;52.504;13.478;2023-08-01T00:22:52;18.10;85.50
44121;DHT22;29783;52.504;13.478;2023-08-01T00:25:18;18.10;85.80
44121;DHT22;29783;52.504;13.478;2023-08-01T00:27:45;18.00;86.60
44121;DHT22;29783;52.504;13.478;2023-08-01T00:30:10;18.00;86.50
44121;DHT22;29783;52.504;13.478;2023-08-01T00:32:37;17.80;87.00
44121;DHT22;29783;52.504;13.478;2023-08-01T00:45:09;17.70;88.70
44121;DHT22;29783;52.504;13.478;2023-08-01T00:47:36;17.50;89.00
44121;DHT22;29783;52.504;13.478;2023-08-01T00:50:02;17.50;89.40
44121;DHT22;29783;52.504;13.478;2023-08-01T00:52:28;17.40;89.60
44121;DHT22;29783;52.504;13.478;2023-08-01T00:54:54;17.40;90.00
44121;DHT22;29783;52.504;13.478;2023-08-01T00:57:21;17.20;90.30
44121;DHT22;29783;52.504;13.478;2023-08-01T00:59:46;17.20;90.60
44121;DHT22;29783;52.504;13.478;2023-08-01T01:02:12;17.20;90.80
44121;DHT22;29783;52.504;13.478;2023-08-01T01:04:39;17.20;90.80
44121;DHT22;29783;52.504;13.478;2023-08-01T01:07:06;17.20;90.90
44121;DHT22;29783;52.504;13.478;2023-08-01T01:09:32;17.20;91.10
44121;DHT22;29783;52.504;13.478;2023-08-01T01:11:58;17.20;91.20
44121;DHT22;29783;52.504;13.478;2023-08-01T01:14:28;17.20;91.40
44121;DHT22;29783;52.504;13.478;2023-08-01T01:16:55;17.10;91.50
44121;DHT22;29783;52.504;13.478;2023-08-01T01:19:21;17.10;91.70
44121;DHT22;29783;52.504;13.478;2023-08-01T01:21:47;17.20;91.60
44121;DHT22;29783;52.504;13.478;2023-08-01T01:24:18;17.20;91.60
44121;DHT22;29783;52.504;13.478;2023-08-01T01:26:45;17.20;91.40
44121;DHT22;29783;52.504;13.478;2023-08-01T01:29:12;17.20;91.60
44121;DHT22;29783;52.504;13.478;2023-08-01T01:31:38;17.20;91.80
44121;DHT22;29783;52.504;13.478;2023-08-01T01:34:04;17.10;92.00
44121;DHT22;29783;52.504;13.478;2023-08-01T01:36:30;17.10;92.20
44121;DHT22;29783;52.504;13.478;2023-08-01T01:38:56;17.20;92.30
44121;DHT22;29783;52.504;13.478;2023-08-01T01:41:23;17.10;92.30
44121;DHT22;29783;52.504;13.478;2023-08-01T01:43:48;17.20;92.10
44121;DHT22;29783;52.504;13.478;2023-08-01T01:46:16;17.10;92.20
44121;DHT22;29783;52.504;13.478;2023-08-01T01:48:41;17.10;92.10
44121;DHT22;29783;52.504;13.478;2023-08-01T01:51:08;17.10;92.20
44121;DHT22;29783;52.504;13.478;2023-08-01T01:53:33;17.10;92.40
44121;DHT22;29783;52.504;13.478;2023-08-01T01:55:59;17.20;92.40
44121;DHT22;29783;52.504;13.478;2023-08-01T01:58:25;17.20;92.30
44121;DHT22;29783;52.504;13.478;2023-08-01T02:00:51;17.20;92.30
44121;DHT22;29783;52.504;13.478;2023-08-01T02:03:16;17.20;92.30
44121;DHT22;29783;52.504;13.478;2023-08-01T02:05:42;17.20;92.00
44121;DHT22;29783;52.504;13.478;2023-08-01T02:08:07;17.20;92.00
44121;DHT22;29783;52.504;13.478;2023-08-01T02:10:33;17.20;91.80
44121;DHT22;29783;52.504;13.478;2023-08-01T02:12:59;17.20;92.10
44121;DHT22;29783;52.504;13.478;2023-08-01T02:15:25;17.20;92.40
44121;DHT22;29783;52.504;13.478;2023-08-01T02:17:50;17.10;92.60
44121;DHT22;29783;52.504;13.478;2023-08-01T02:20:16;17.10;92.90
44121;DHT22;29783;52.504;13.478;2023-08-01T02:22:42;17.10;93.10
44121;DHT22;29783;52.504;13.478;2023-08-01T02:25:08;17.10;93.10
44121;DHT22;29783;52.504;13.478;2023-08-01T02:27:33;17.00;93.20
44121;DHT22;29783;52.504;13.478;2023-08-01T02:30:00;17.00;93.40
44121;DHT22;29783;52.504;13.478;2023-08-01T02:32:27;16.90;93.50
44121;DHT22;29783;52.504;13.478;2023-08-01T02:34:54;17.00;93.50
44121;DHT22;29783;52.504;13.478;2023-08-01T02:37:20;17.10;93.20
44121;DHT22;29783;52.504;13.478;2023-08-01T02:39:47;17.00;93.20
44121;DHT22;29783;52.504;13.478;2023-08-01T02:42:13;17.10;93.30
44121;DHT22;29783;52.504;13.478;2023-08-01T02:44:39;17.10;93.20
44121;DHT22;29783;52.504;13.478;2023-08-01T02:47:04;17.10;93.10
44121;DHT22;29783;52.504;13.478;2023-08-01T02:49:31;17.10;93.10
44121;DHT22;29783;52.504;13.478;2023-08-01T02:52:09;17.10;93.00
44121;DHT22;29783;52.504;13.478;2023-08-01T02:54:35;17.10;93.00
44121;DHT22;29783;52.504;13.478;2023-08-01T02:57:01;17.20;92.90
44121;DHT22;29783;52.504;13.478;2023-08-01T02:59:27;17.20;92.90
44121;DHT22;29783;52.504;13.478;2023-08-01T03:01:52;17.20;92.90
44121;DHT22;29783;52.504;13.478;2023-08-01T03:04:19;17.10;92.90
44121;DHT22;29783;52.504;13.478;2023-08-01T03:06:45;17.10;92.90
44121;DHT22;29783;52.504;13.478;2023-08-01T03:09:11;17.10;92.90
44121;DHT22;29783;52.504;13.478;2023-08-01T03:11:37;17.10;93.00
44121;DHT22;29783;52.504;13.478;2023-08-01T03:14:03;17.10;92.90
44121;DHT22;29783;52.504;13.478;2023-08-01T03:16:32;17.10;92.90
44121;DHT22;29783;52.504;13.478;2023-08-01T03:18:58;17.20;92.80
44121;DHT22;29783;52.504;13.478;2023-08-01T03:21:34;17.20;92.70
44121;DHT22;29783;52.504;13.478;2023-08-01T03:24:04;17.10;92.80
44121;DHT22;29783;52.504;13.478;2023-08-01T03:26:31;17.20;92.70
44121;DHT22;29783;52.504;13.478;2023-08-01T03:28:57;17.10;92.70
44121;DHT22;29783;52.504;13.478;2023-08-01T03:31:24;17.10;92.80
44121;DHT22;29783;52.504;13.478;2023-08-01T03:33:50;17.20;92.80
44121;DHT22;29783;52.504;13.478;2023-08-01T03:36:16;17.20;92.60
44121;DHT22;29783;52.504;13.478;2023-08-01T03:38:41;17.20;92.70
44121;DHT22;29783;52.504;13.478;2023-08-01T03:41:09;17.20;92.50
44121;DHT22;29783;52.504;13.478;2023-08-01T03:43:34;17.20;92.40
44121;DHT22;29783;52.504;13.478;2023-08-01T03:46:00;17.20;92.40
44121;DHT22;29783;52.504;13.478;2023-08-01T03:48:26;17.20;92.40
44121;DHT22;29783;52.504;13.478;2023-08-01T03:50:51;17.20;92.40
44121;DHT22;29783;52.504;13.478;2023-08-01T03:53:17;17.20;92.50
44121;DHT22;29783;52.504;13.478;2023-08-01T03:55:44;17.10;92.50
44121;DHT22;29783;52.504;13.478;2023-08-01T03:58:10;17.20;92.60
44121;DHT22;29783;52.504;13.478;2023-08-01T04:00:36;17.10;92.60
44121;DHT22;29783;52.504;13.478;2023-08-01T04:03:01;17.20;92.60
44121;DHT22;29783;52.504;13.478;2023-08-01T04:05:28;17.10;92.40
44121;DHT22;29783;52.504;13.478;2023-08-01T04:07:54;17.20;92.40
44121;DHT22;29783;52.504;13.478;2023-08-01T04:10:22;17.20;92.30
44121;DHT22;29783;52.504;13.478;2023-08-01T04:12:49;17.30;92.10
44121;DHT22;29783;52.504;13.478;2023-08-01T04:15:15;17.20;91.90
44121;DHT22;29783;52.504;13.478;2023-08-01T04:17:42;17.30;92.00
44121;DHT22;29783;52.504;13.478;2023-08-01T04:20:08;17.30;91.80
44121;DHT22;29783;52.504;13.478;2023-08-01T04:22:35;17.30;91.80
44121;DHT22;29783;52.504;13.478;2023-08-01T04:25:02;17.40;91.70
44121;DHT22;29783;52.504;13.478;2023-08-01T04:27:28;17.40;91.40
44121;DHT22;29783;52.504;13.478;2023-08-01T04:29:55;17.50;91.00
44121;DHT22;29783;52.504;13.478;2023-08-01T04:32:21;17.60;90.90
44121;DHT22;29783;52.504;13.478;2023-08-01T04:34:46;17.60;90.70
44121;DHT22;29783;52.504;13.478;2023-08-01T04:37:12;17.70;90.40
44121;DHT22;29783;52.504;13.478;2023-08-01T04:39:38;17.70;90.50
44121;DHT22;29783;52.504;13.478;2023-08-01T04:42:08;17.70;90.50
44121;DHT22;29783;52.504;13.478;2023-08-01T04:44:33;17.70;90.10
44121;DHT22;29783;52.504;13.478;2023-08-01T04:46:59;17.80;89.90
44121;DHT22;29783;52.504;13.478;2023-08-01T04:49:25;17.80;89.70
44121;DHT22;29783;52.504;13.478;2023-08-01T04:51:52;17.80;89.80
44121;DHT22;29783;52.504;13.478;2023-08-01T04:54:18;17.80;89.70
44121;DHT22;29783;52.504;13.478;2023-08-01T04:56:44;17.80;89.70
44121;DHT22;29783;52.504;13.478;2023-08-01T04:59:10;17.80;89.70
44121;DHT22;29783;52.504;13.478;2023-08-01T05:01:37;17.80;89.50
44121;DHT22;29783;52.504;13.478;2023-08-01T05:04:02;17.80;89.50
44121;DHT22;29783;52.504;13.478;2023-08-01T05:06:28;17.80;89.50
44121;DHT22;29783;52.504;13.478;2023-08-01T05:08:54;17.80;89.90
44121;DHT22;29783;52.504;13.478;2023-08-01T05:11:21;17.80;89.90
44121;DHT22;29783;52.504;13.478;2023-08-01T05:13:47;17.80;90.20
44121;DHT22;29783;52.504;13.478;2023-08-01T05:16:12;17.70;90.50
44121;DHT22;29783;52.504;13.478;2023-08-01T05:18:38;17.70;90.70
44121;DHT22;29783;52.504;13.478;2023-08-01T05:21:04;17.80;90.30
44121;DHT22;29783;52.504;13.478;2023-08-01T05:23:29;17.80;90.50
44121;DHT22;29783;52.504;13.478;2023-08-01T05:25:56;17.80;90.30
44121;DHT22;29783;52.504;13.478;2023-08-01T05:28:23;17.90;89.90
44121;DHT22;29783;52.504;13.478;2023-08-01T05:30:50;17.90;90.10
44121;DHT22;29783;52.504;13.478;2023-08-01T05:33:16;18.00;89.80
44121;DHT22;29783;52.504;13.478;2023-08-01T05:35:41;18.00;89.50
44121;DHT22;29783;52.504;13.478;2023-08-01T05:38:07;18.10;89.50
44121;DHT22;29783;52.504;13.478;2023-08-01T05:40:33;18.00;89.60
44121;DHT22;29783;52.504;13.478;2023-08-01T05:43:00;18.00;89.70
44121;DHT22;29783;52.504;13.478;2023-08-01T05:45:27;18.20;89.40
44121;DHT22;29783;52.504;13.478;2023-08-01T06:44:37;18.50;87.90
44121;DHT22;29783;52.504;13.478;2023-08-01T06:47:04;18.50;88.20
44121;DHT22;29783;52.504;13.478;2023-08-01T07:04:10;18.40;88.10
44121;DHT22;29783;52.504;13.478;2023-08-01T07:06:36;18.50;88.30
44121;DHT22;29783;52.504;13.478;2023-08-01T07:09:02;18.40;88.20
44121;DHT22;29783;52.504;13.478;2023-08-01T07:11:27;18.50;88.30
44121;DHT22;29783;52.504;13.478;2023-08-01T07:13:54;18.50;88.10
44121;DHT22;29783;52.504;13.478;2023-08-01T07:16:20;18.60;87.40
44121;DHT22;29783;52.504;13.478;2023-08-01T07:18:46;18.70;87.60
44121;DHT22;29783;52.504;13.478;2023-08-01T07:21:14;18.80;87.30
44121;DHT22;29783;52.504;13.478;2023-08-01T07:23:41;19.00;87.10
44121;DHT22;29783;52.504;13.478;2023-08-01T07:26:07;19.10;86.40
44121;DHT22;29783;52.504;13.478;2023-08-01T07:28:33;19.20;86.00
44121;DHT22;29783;52.504;13.478;2023-08-01T07:31:05;19.40;85.60
44121;DHT22;29783;52.504;13.478;2023-08-01T07:33:32;19.40;84.90
44121;DHT22;29783;52.504;13.478;2023-08-01T07:35:58;19.40;84.80
44121;DHT22;29783;52.504;13.478;2023-08-01T07:38:25;19.70;84.20
44121;DHT22;29783;52.504;13.478;2023-08-01T07:40:54;19.70;84.00
44121;DHT22;29783;52.504;13.478;2023-08-01T07:43:22;19.70;83.50
44121;DHT22;29783;52.504;13.478;2023-08-01T07:45:55;19.80;83.50
44121;DHT22;29783;52.504;13.478;2023-08-01T07:48:21;19.80;83.60
44121;DHT22;29783;52.504;13.478;2023-08-01T07:50:46;19.80;83.60
44121;DHT22;29783;52.504;13.478;2023-08-01T07:53:12;20.10;82.90
44121;DHT22;29783;52.504;13.478;2023-08-01T07:55:39;20.20;82.00
44121;DHT22;29783;52.504;13.478;2023-08-01T07:58:04;20.30;81.50
44121;DHT22;29783;52.504;13.478;2023-08-01T08:00:30;20.30;81.60
44121;DHT22;29783;52.504;13.478;2023-08-01T08:02:56;20.60;80.80
44121;DHT22;29783;52.504;13.478;2023-08-01T08:05:23;20.70;80.80
44121;DHT22;29783;52.504;13.478;2023-08-01T08:07:48;20.80;79.70
44121;DHT22;29783;52.504;13.478;2023-08-01T08:10:14;20.80;79.90
44121;DHT22;29783;52.504;13.478;2023-08-01T08:12:40;21.00;79.40
44121;DHT22;29783;52.504;13.478;2023-08-01T08:15:07;20.90;79.50
44121;DHT22;29783;52.504;13.478;2023-08-01T08:17:34;21.20;78.80
44121;DHT22;29783;52.504;13.478;2023-08-01T08:19:59;21.30;78.30
44121;DHT22;29783;52.504;13.478;2023-08-01T08:22:25;21.40;78.00
44121;DHT22;29783;52.504;13.478;2023-08-01T08:24:51;21.50;76.90
44121;DHT22;29783;52.504;13.478;2023-08-01T08:27:18;21.70;76.50
44121;DHT22;29783;52.504;13.478;2023-08-01T08:29:44;21.70;76.90
44121;DHT22;29783;52.504;13.478;2023-08-01T08:32:09;21.60;76.30
44121;DHT22;29783;52.504;13.478;2023-08-01T08:34:36;21.80;75.10
44121;DHT22;29783;52.504;13.478;2023-08-01T08:37:03;21.80;75.30
44121;DHT22;29783;52.504;13.478;2023-08-01T08:39:30;21.80;75.50
44121;DHT22;29783;52.504;13.478;2023-08-01T08:41:57;22.00;74.30
44121;DHT22;29783;52.504;13.478;2023-08-01T08:44:23;22.10;73.90
44121;DHT22;29783;52.504;13.478;2023-08-01T08:46:55;22.50;72.60
44121;DHT22;29783;52.504;13.478;2023-08-01T08:49:26;22.50;73.00
44121;DHT22;29783;52.504;13.478;2023-08-01T08:51:52;22.40;73.00
44121;DHT22;29783;52.504;13.478;2023-08-01T08:54:20;22.40;72.80
44121;DHT22;29783;52.504;13.478;2023-08-01T08:56:46;22.50;73.00
44121;DHT22;29783;52.504;13.478;2023-08-01T08:59:12;22.40;72.40
44121;DHT22;29783;52.504;13.478;2023-08-01T09:01:38;22.20;73.00
44121;DHT22;29783;52.504;13.478;2023-08-01T09:04:06;22.00;73.50
44121;DHT22;29783;52.504;13.478;2023-08-01T09:06:34;22.00;73.70
44121;DHT22;29783;52.504;13.478;2023-08-01T09:09:09;22.20;73.50
44121;DHT22;29783;52.504;13.478;2023-08-01T09:14:10;22.60;72.80
44121;DHT22;29783;52.504;13.478;2023-08-01T09:16:39;22.50;72.30
44121;DHT22;29783;52.504;13.478;2023-08-01T09:19:06;22.70;71.80
44121;DHT22;29783;52.504;13.478;2023-08-01T09:21:33;22.70;70.10
44121;DHT22;29783;52.504;13.478;2023-08-01T09:24:11;22.90;69.50
44121;DHT22;29783;52.504;13.478;2023-08-01T09:26:37;23.20;68.20
44121;DHT22;29783;52.504;13.478;2023-08-01T09:29:03;23.70;67.00
44121;DHT22;29783;52.504;13.478;2023-08-01T09:31:30;23.80;65.00
44121;DHT22;29783;52.504;13.478;2023-08-01T09:33:56;23.90;63.20
44121;DHT22;29783;52.504;13.478;2023-08-01T09:36:24;23.70;63.60
44121;DHT22;29783;52.504;13.478;2023-08-01T09:39:02;23.50;63.70
44121;DHT22;29783;52.504;13.478;2023-08-01T09:41:30;23.30;64.20
44121;DHT22;29783;52.504;13.478;2023-08-01T09:43:57;23.20;64.70
44121;DHT22;29783;52.504;13.478;2023-08-01T09:46:24;22.70;65.50
44121;DHT22;29783;52.504;13.478;2023-08-01T10:29:37;21.70;70.00
44121;DHT22;29783;52.504;13.478;2023-08-01T10:32:02;21.40;71.00
44121;DHT22;29783;52.504;13.478;2023-08-01T10:34:29;21.30;71.50
44121;DHT22;29783;52.504;13.478;2023-08-01T10:36:56;21.50;71.00
44121;DHT22;29783;52.504;13.478;2023-08-01T10:39:24;21.60;71.40
44121;DHT22;29783;52.504;13.478;2023-08-01T10:42:02;21.90;70.60
44121;DHT22;29783;52.504;13.478;2023-08-01T10:44:29;21.90;70.50
44121;DHT22;29783;52.504;13.478;2023-08-01T10:46:58;21.70;71.00
44121;DHT22;29783;52.504;13.478;2023-08-01T10:49:41;21.50;71.50
44121;DHT22;29783;52.504;13.478;2023-08-01T10:52:17;21.30;72.40
44121;DHT22;29783;52.504;13.478;2023-08-01T10:55:03;21.20;73.20
44121;DHT22;29783;52.504;13.478;2023-08-01T10:57:30;20.50;81.60
44121;DHT22;29783;52.504;13.478;2023-08-01T10:59:58;19.70;84.80
44121;DHT22;29783;52.504;13.478;2023-08-01T11:02:25;19.20;86.20
44121;DHT22;29783;52.504;13.478;2023-08-01T11:04:59;18.70;87.30
44121;DHT22;29783;52.504;13.478;2023-08-01T11:07:25;18.60;88.90
44121;DHT22;29783;52.504;13.478;2023-08-01T11:10:06;18.50;89.30
44121;DHT22;29783;52.504;13.478;2023-08-01T11:12:40;18.40;89.50
44121;DHT22;29783;52.504;13.478;2023-08-01T11:15:09;18.40;89.80
44121;DHT22;29783;52.504;13.478;2023-08-01T11:17:39;18.40;89.80
44121;DHT22;29783;52.504;13.478;2023-08-01T11:20:06;18.40;90.40
44121;DHT22;29783;52.504;13.478;2023-08-01T11:22:33;18.30;90.70
44121;DHT22;29783;52.504;13.478;2023-08-01T11:24:59;18.50;90.30
44121;DHT22;29783;52.504;13.478;2023-08-01T11:27:25;18.50;89.40
44121;DHT22;29783;52.504;13.478;2023-08-01T11:29:52;18.30;89.10
44121;DHT22;29783;52.504;13.478;2023-08-01T11:32:18;18.40;89.50
44121;DHT22;29783;52.504;13.478;2023-08-01T11:34:45;18.60;88.20
44121;DHT22;29783;52.504;13.478;2023-08-01T11:37:17;18.90;88.00
44121;DHT22;29783;52.504;13.478;2023-08-01T11:39:44;19.00;86.20
44121;DHT22;29783;52.504;13.478;2023-08-01T11:42:17;19.00;85.30
44121;DHT22;29783;52.504;13.478;2023-08-01T11:44:43;19.00;86.20
44121;DHT22;29783;52.504;13.478;2023-08-01T11:47:17;19.00;86.20
44121;DHT22;29783;52.504;13.478;2023-08-01T11:49:50;19.30;84.20
44121;DHT22;29783;52.504;13.478;2023-08-01T11:52:23;19.20;84.30
44121;DHT22;29783;52.504;13.478;2023-08-01T11:54:49;19.40;81.90
44121;DHT22;29783;52.504;13.478;2023-08-01T11:57:16;19.50;81.70
44121;DHT22;29783;52.504;13.478;2023-08-01T11:59:54;19.70;82.00
44121;DHT22;29783;52.504;13.478;2023-08-01T12:02:29;19.90;81.10
44121;DHT22;29783;52.504;13.478;2023-08-01T12:04:57;20.00;80.20
44121;DHT22;29783;52.504;13.478;2023-08-01T12:07:26;20.20;79.50
44121;DHT22;29783;52.504;13.478;2023-08-01T12:12:23;20.30;78.30
44121;DHT22;29783;52.504;13.478;2023-08-01T12:14:50;20.50;78.90
44121;DHT22;29783;52.504;13.478;2023-08-01T12:17:18;20.90;77.70
44121;DHT22;29783;52.504;13.478;2023-08-01T12:19:44;21.30;77.20
44121;DHT22;29783;52.504;13.478;2023-08-01T12:22:11;21.80;74.80
44121;DHT22;29783;52.504;13.478;2023-08-01T12:24:37;22.00;72.60
44121;DHT22;29783;52.504;13.478;2023-08-01T12:27:06;21.50;71.20
44121;DHT22;29783;52.504;13.478;2023-08-01T12:29:31;21.10;72.90
44121;DHT22;29783;52.504;13.478;2023-08-01T12:31:57;20.70;73.80
44121;DHT22;29783;52.504;13.478;2023-08-01T12:34:24;20.50;76.50
44121;DHT22;29783;52.504;13.478;2023-08-01T12:36:50;20.30;77.40
44121;DHT22;29783;52.504;13.478;2023-08-01T12:39:22;20.50;78.20
44121;DHT22;29783;52.504;13.478;2023-08-01T12:41:49;21.30;76.50
44121;DHT22;29783;52.504;13.478;2023-08-01T12:44:15;22.20;72.20
44121;DHT22;29783;52.504;13.478;2023-08-01T12:46:42;23.70;66.40
44121;DHT22;29783;52.504;13.478;2023-08-01T12:49:08;25.20;61.60
44121;DHT22;29783;52.504;13.478;2023-08-01T12:51:34;26.20;58.00
44121;DHT22;29783;52.504;13.478;2023-08-01T12:54:00;25.30;58.50
44121;DHT22;29783;52.504;13.478;2023-08-01T12:56:26;24.20;61.20
44121;DHT22;29783;52.504;13.478;2023-08-01T12:58:53;23.20;63.30
44121;DHT22;29783;52.504;13.478;2023-08-01T13:01:20;22.70;65.10
44121;DHT22;29783;52.504;13.478;2023-08-01T13:03:46;22.80;65.50
44121;DHT22;29783;52.504;13.478;2023-08-01T13:06:12;22.20;66.50
44121;DHT22;29783;52.504;13.478;2023-08-01T13:08:38;22.40;65.10
44121;DHT22;29783;52.504;13.478;2023-08-01T13:11:14;22.60;64.90
44121;DHT22;29783;52.504;13.478;2023-08-01T13:13:41;23.00;64.20
44121;DHT22;29783;52.504;13.478;2023-08-01T13:16:07;23.00;63.90
44121;DHT22;29783;52.504;13.478;2023-08-01T13:18:34;23.70;63.20
44121;DHT22;29783;52.504;13.478;2023-08-01T13:21:00;24.60;60.20
44121;DHT22;29783;52.504;13.478;2023-08-01T13:23:27;25.70;56.50
44121;DHT22;29783;52.504;13.478;2023-08-01T13:25:53;25.50;55.80
44121;DHT22;29783;52.504;13.478;2023-08-01T13:28:19;25.50;56.70
44121;DHT22;29783;52.504;13.478;2023-08-01T13:30:46;25.10;58.20
44121;DHT22;29783;52.504;13.478;2023-08-01T13:33:11;25.40;57.70
44121;DHT22;29783;52.504;13.478;2023-08-01T13:35:37;25.50;57.00
44121;DHT22;29783;52.504;13.478;2023-08-01T13:38:03;25.10;57.40
44121;DHT22;29783;52.504;13.478;2023-08-01T13:40:30;24.50;59.60
44121;DHT22;29783;52.504;13.478;2023-08-01T13:42:56;24.70;58.20
44121;DHT22;29783;52.504;13.478;2023-08-01T13:45:22;24.50;59.10
44121;DHT22;29783;52.504;13.478;2023-08-01T14:13:06;30.30;43.50
44121;DHT22;29783;52.504;13.478;2023-08-01T14:15:31;30.20;43.20
44121;DHT22;29783;52.504;13.478;2023-08-01T14:17:57;29.20;44.50
44121;DHT22;29783;52.504;13.478;2023-08-01T14:20:24;28.60;45.00
44121;DHT22;29783;52.504;13.478;2023-08-01T14:22:50;28.40;46.00
44121;DHT22;29783;52.504;13.478;2023-08-01T14:25:16;29.20;44.30
44121;DHT22;29783;52.504;13.478;2023-08-01T14:27:42;29.40;44.50
44121;DHT22;29783;52.504;13.478;2023-08-01T14:30:07;28.90;44.40
44121;DHT22;29783;52.504;13.478;2023-08-01T14:32:36;29.40;44.20
44121;DHT22;29783;52.504;13.478;2023-08-01T14:35:02;29.60;42.30
44121;DHT22;29783;52.504;13.478;2023-08-01T14:37:27;29.60;42.90
44121;DHT22;29783;52.504;13.478;2023-08-01T14:39:54;29.40;42.90
44121;DHT22;29783;52.504;13.478;2023-08-01T14:42:22;29.60;42.30
44121;DHT22;29783;52.504;13.478;2023-08-01T14:44:52;29.50;41.80
44121;DHT22;29783;52.504;13.478;2023-08-01T15:01:17;26.40;47.50
44121;DHT22;29783;52.504;13.478;2023-08-01T15:03:44;25.80;50.00
44121;DHT22;29783;52.504;13.478;2023-08-01T15:06:11;25.50;51.00
44121;DHT22;29783;52.504;13.478;2023-08-01T15:08:38;24.80;52.00
44121;DHT22;29783;52.504;13.478;2023-08-01T15:11:05;24.00;52.80
44121;DHT22;29783;52.504;13.478;2023-08-01T15:13:31;23.60;55.50
44121;DHT22;29783;52.504;13.478;2023-08-01T15:15:58;23.10;56.50
44121;DHT22;29783;52.504;13.478;2023-08-01T15:18:25;22.70;58.30
44121;DHT22;29783;52.504;13.478;2023-08-01T15:20:50;22.50;59.50
44121;DHT22;29783;52.504;13.478;2023-08-01T15:23:16;22.20;63.20
44121;DHT22;29783;52.504;13.478;2023-08-01T15:25:52;20.90;79.80
44121;DHT22;29783;52.504;13.478;2023-08-01T15:28:17;18.80;82.00
44121;DHT22;29783;52.504;13.478;2023-08-01T15:30:44;17.90;84.50
44121;DHT22;29783;52.504;13.478;2023-08-01T15:33:11;17.40;86.90
44121;DHT22;29783;52.504;13.478;2023-08-01T15:35:37;17.10;88.50
44121;DHT22;29783;52.504;13.478;2023-08-01T15:38:02;17.00;90.10
44121;DHT22;29783;52.504;13.478;2023-08-01T15:40:28;16.90;90.70
44121;DHT22;29783;52.504;13.478;2023-08-01T15:42:54;16.90;91.10
44121;DHT22;29783;52.504;13.478;2023-08-01T15:45:22;16.90;91.30
44121;DHT22;29783;52.504;13.478;2023-08-01T15:47:48;17.10;91.40
44121;DHT22;29783;52.504;13.478;2023-08-01T15:50:14;17.20;91.20
44121;DHT22;29783;52.504;13.478;2023-08-01T15:52:40;17.30;90.40
44121;DHT22;29783;52.504;13.478;2023-08-01T15:55:07;17.40;90.40
44121;DHT22;29783;52.504;13.478;2023-08-01T15:57:35;17.50;90.50
44121;DHT22;29783;52.504;13.478;2023-08-01T16:00:00;17.70;91.00
44121;DHT22;29783;52.504;13.478;2023-08-01T16:02:26;18.40;89.10
44121;DHT22;29783;52.504;13.478;2023-08-01T16:04:53;19.20;85.50
44121;DHT22;29783;52.504;13.478;2023-08-01T16:07:18;19.70;82.30
44121;DHT22;29783;52.504;13.478;2023-08-01T16:09:46;20.20;82.90
44121;DHT22;29783;52.504;13.478;2023-08-01T16:12:12;21.50;78.70
44121;DHT22;29783;52.504;13.478;2023-08-01T16:14:38;22.50;74.30
44121;DHT22;29783;52.504;13.478;2023-08-01T16:17:06;23.60;73.00
44121;DHT22;29783;52.504;13.478;2023-08-01T16:19:32;24.50;67.70
44121;DHT22;29783;52.504;13.478;2023-08-01T16:21:58;25.10;63.90
44121;DHT22;29783;52.504;13.478;2023-08-01T16:24:24;25.40;63.90
44121;DHT22;29783;52.504;13.478;2023-08-01T16:26:50;25.20;61.90
44121;DHT22;29783;52.504;13.478;2023-08-01T16:29:16;24.30;64.00
44121;DHT22;29783;52.504;13.478;2023-08-01T16:31:42;24.60;62.10
44121;DHT22;29783;52.504;13.478;2023-08-01T16:34:08;25.50;60.20
44121;DHT22;29783;52.504;13.478;2023-08-01T16:36:33;25.60;58.70
44121;DHT22;29783;52.504;13.478;2023-08-01T16:39:00;26.00;56.60
44121;DHT22;29783;52.504;13.478;2023-08-01T16:41:27;26.10;53.80
44121;DHT22;29783;52.504;13.478;2023-08-01T16:43:53;25.80;54.90
44121;DHT22;29783;52.504;13.478;2023-08-01T16:46:20;25.30;54.50
44121;DHT22;29783;52.504;13.478;2023-08-01T17:41:53;20.60;70.20
44121;DHT22;29783;52.504;13.478;2023-08-01T17:44:21;20.20;71.20
44121;DHT22;29783;52.504;13.478;2023-08-01T17:46:48;20.00;72.00
44121;DHT22;29783;52.504;13.478;2023-08-01T17:49:14;19.80;72.90
44121;DHT22;29783;52.504;13.478;2023-08-01T17:51:39;19.70;72.90
44121;DHT22;29783;52.504;13.478;2023-08-01T17:54:05;19.80;73.00
44121;DHT22;29783;52.504;13.478;2023-08-01T17:56:31;19.80;73.00
44121;DHT22;29783;52.504;13.478;2023-08-01T17:58:56;20.00;72.50
44121;DHT22;29783;52.504;13.478;2023-08-01T18:01:22;20.00;72.40
44121;DHT22;29783;52.504;13.478;2023-08-01T18:03:51;20.10;72.00
44121;DHT22;29783;52.504;13.478;2023-08-01T18:06:17;19.90;72.10
44121;DHT22;29783;52.504;13.478;2023-08-01T18:08:43;19.80;71.60
44121;DHT22;29783;52.504;13.478;2023-08-01T18:11:14;19.70;71.30
44121;DHT22;29783;52.504;13.478;2023-08-01T18:13:42;19.70;71.30
44121;DHT22;29783;52.504;13.478;2023-08-01T18:16:08;19.40;72.30
44121;DHT22;29783;52.504;13.478;2023-08-01T18:18:35;19.40;72.60
44121;DHT22;29783;52.504;13.478;2023-08-01T18:21:02;19.20;72.90
44121;DHT22;29783;52.504;13.478;2023-08-01T18:23:30;19.20;73.30
44121;DHT22;29783;52.504;13.478;2023-08-01T18:25:55;19.10;73.50
44121;DHT22;29783;52.504;13.478;2023-08-01T18:28:23;19.00;73.90
44121;DHT22;29783;52.504;13.478;2023-08-01T18:30:48;18.90;74.40
44121;DHT22;29783;52.504;13.478;2023-08-01T18:33:14;18.80;74.70
44121;DHT22;29783;52.504;13.478;2023-08-01T18:35:45;18.80;74.50
44121;DHT22;29783;52.504;13.478;2023-08-01T18:38:11;18.70;75.20
44121;DHT22;29783;52.504;13.478;2023-08-01T18:40:38;18.70;75.30
44121;DHT22;29783;52.504;13.478;2023-08-01T18:43:05;18.60;75.90
44121;DHT22;29783;52.504;13.478;2023-08-01T18:45:32;18.60;75.50
44121;DHT22;29783;52.504;13.478;2023-08-01T18:55:44;18.60;75.40
44121;DHT22;29783;52.504;13.478;2023-08-01T18:58:10;18.50;75.60
44121;DHT22;29783;52.504;13.478;2023-08-01T19:00:36;18.50;75.90